createdAt,value
2019-03-30T00:00:48.230Z,0.00
2019-03-30T00:01:48.211Z,0.00
2019-03-30T00:02:48.182Z,0.00
2019-03-30T00:03:48.167Z,0.00
2019-03-30T00:04:48.189Z,0.00
2019-03-30T00:05:48.172Z,0.00
2019-03-30T00:06:48.103Z,0.00
2019-03-30T00:07:48.075Z,0.00
2019-03-30T00:08:48.057Z,0.00
2019-03-30T00:09:48.032Z,0.00
2019-03-30T00:10:48.009Z,0.00
2019-03-30T00:11:47.994Z,0.00
2019-03-30T00:12:48.221Z,0.00
2019-03-30T00:13:47.945Z,0.00
2019-03-30T00:14:48.183Z,0.00
2019-03-30T00:15:47.897Z,0.00
2019-03-30T00:16:47.875Z,0.00
2019-03-30T00:17:47.860Z,0.00
2019-03-30T00:18:47.829Z,0.00
2019-03-30T00:19:47.807Z,0.00
2019-03-30T00:20:47.790Z,0.00
2019-03-30T00:21:47.769Z,0.00
2019-03-30T00:22:47.743Z,0.00
2019-03-30T00:23:47.737Z,0.00
2019-03-30T00:24:47.705Z,0.00
2019-03-30T00:25:47.684Z,0.00
2019-03-30T00:26:47.651Z,0.00
2019-03-30T00:27:47.635Z,0.00
2019-03-30T00:28:47.612Z,0.00
2019-03-30T00:29:47.590Z,0.00
2019-03-30T00:30:47.567Z,0.00
2019-03-30T00:31:47.545Z,0.00
2019-03-30T00:32:47.521Z,0.00
2019-03-30T00:33:47.498Z,0.00
2019-03-30T00:34:47.484Z,0.00
2019-03-30T00:35:47.454Z,0.00
2019-03-30T00:36:47.432Z,0.00
2019-03-30T00:37:47.412Z,0.00
2019-03-30T00:38:47.399Z,0.00
2019-03-30T00:39:47.368Z,0.00
2019-03-30T00:40:47.343Z,0.00
2019-03-30T00:41:47.323Z,0.00
2019-03-30T00:42:47.300Z,0.00
2019-03-30T00:43:47.321Z,0.00
2019-03-30T00:44:47.254Z,0.00
2019-03-30T00:45:47.263Z,0.00
2019-03-30T00:46:47.245Z,0.00
2019-03-30T00:47:47.206Z,0.00
2019-03-30T00:48:47.170Z,0.00
2019-03-30T00:49:49.837Z,0.00
2019-03-30T00:50:47.120Z,0.00
2019-03-30T00:51:47.185Z,0.00
2019-03-30T00:52:47.162Z,0.00
2019-03-30T00:53:47.241Z,0.00
2019-03-30T00:54:47.200Z,0.00
2019-03-30T00:55:47.204Z,0.00
2019-03-30T00:56:47.213Z,0.00
2019-03-30T00:57:47.280Z,0.00
2019-03-30T00:58:47.271Z,0.00
2019-03-30T00:59:47.259Z,0.00
2019-03-30T01:00:46.900Z,0.00
2019-03-30T01:01:46.879Z,0.00
2019-03-30T01:02:47.180Z,0.00
2019-03-30T01:03:47.213Z,0.00
2019-03-30T01:04:47.140Z,0.00
2019-03-30T01:05:47.204Z,0.00
2019-03-30T01:06:47.167Z,0.00
2019-03-30T01:07:46.741Z,0.00
2019-03-30T01:08:46.719Z,0.00
2019-03-30T01:09:46.700Z,0.00
2019-03-30T01:10:46.674Z,0.00
2019-03-30T01:11:46.654Z,0.00
2019-03-30T01:12:46.629Z,0.00
2019-03-30T01:13:46.610Z,0.00
2019-03-30T01:14:46.589Z,0.00
2019-03-30T01:15:46.566Z,0.00
2019-03-30T01:16:46.543Z,0.00
2019-03-30T01:17:46.524Z,0.00
2019-03-30T01:18:46.495Z,0.00
2019-03-30T01:19:46.475Z,0.00
2019-03-30T01:20:46.455Z,0.00
2019-03-30T01:21:46.431Z,0.00
2019-03-30T01:22:46.407Z,0.00
2019-03-30T01:23:46.387Z,0.00
2019-03-30T01:24:46.363Z,0.00
2019-03-30T01:25:46.344Z,0.00
2019-03-30T01:26:46.319Z,0.00
2019-03-30T01:27:46.295Z,0.00
2019-03-30T01:28:46.277Z,0.00
2019-03-30T01:29:46.253Z,0.00
2019-03-30T01:30:46.229Z,0.00
2019-03-30T01:31:46.211Z,0.00
2019-03-30T01:32:46.187Z,0.00
2019-03-30T01:33:46.165Z,0.00
2019-03-30T01:34:46.140Z,0.00
2019-03-30T01:35:46.117Z,0.00
2019-03-30T01:36:46.095Z,0.00
2019-03-30T01:37:46.075Z,0.00
2019-03-30T01:38:46.047Z,0.00
2019-03-30T01:39:46.027Z,0.00
2019-03-30T01:40:46.008Z,0.00
2019-03-30T01:41:45.983Z,0.00
2019-03-30T01:42:45.963Z,0.00
2019-03-30T01:43:45.939Z,0.00
2019-03-30T01:44:45.915Z,0.00
2019-03-30T01:45:45.896Z,0.00
2019-03-30T01:46:45.872Z,0.00
2019-03-30T01:47:45.849Z,0.00
2019-03-30T01:48:45.825Z,0.00
2019-03-30T01:49:45.806Z,0.00
2019-03-30T01:50:45.782Z,0.00
2019-03-30T01:51:45.756Z,0.00
2019-03-30T01:52:45.736Z,0.00
2019-03-30T01:53:45.716Z,0.00
2019-03-30T01:54:45.690Z,0.00
2019-03-30T01:55:45.668Z,0.00
2019-03-30T01:56:45.694Z,0.00
2019-03-30T01:57:45.619Z,0.00
2019-03-30T01:58:45.600Z,0.00
2019-03-30T01:59:45.581Z,0.00
2019-03-30T02:00:45.554Z,0.00
2019-03-30T02:01:45.534Z,0.00
2019-03-30T02:02:45.516Z,0.00
2019-03-30T02:03:45.490Z,0.00
2019-03-30T02:04:45.466Z,0.00
2019-03-30T02:05:45.444Z,0.00
2019-03-30T02:06:45.422Z,0.00
2019-03-30T02:07:45.402Z,0.00
2019-03-30T02:08:45.374Z,0.00
2019-03-30T02:09:45.358Z,0.00
2019-03-30T02:10:45.426Z,0.00
2019-03-30T02:11:45.311Z,0.00
2019-03-30T02:12:45.290Z,0.00
2019-03-30T02:13:45.264Z,0.00
2019-03-30T02:14:45.242Z,0.00
2019-03-30T02:15:45.217Z,0.00
2019-03-30T02:16:45.194Z,0.00
2019-03-30T02:17:45.172Z,0.00
2019-03-30T02:18:45.152Z,0.00
2019-03-30T02:19:45.130Z,0.00
2019-03-30T02:20:45.114Z,0.00
2019-03-30T02:21:45.084Z,0.00
2019-03-30T02:22:45.060Z,0.00
2019-03-30T02:23:45.038Z,0.00
2019-03-30T02:24:45.016Z,0.00
2019-03-30T02:25:44.999Z,0.00
2019-03-30T02:26:44.967Z,0.00
2019-03-30T02:27:44.948Z,0.00
2019-03-30T02:28:44.924Z,0.00
2019-03-30T02:29:44.903Z,0.00
2019-03-30T02:30:44.879Z,0.00
2019-03-30T02:31:44.856Z,0.00
2019-03-30T02:32:44.835Z,0.00
2019-03-30T02:33:44.812Z,0.00
2019-03-30T02:34:44.788Z,0.00
2019-03-30T02:35:44.771Z,0.00
2019-03-30T02:36:44.750Z,0.00
2019-03-30T02:37:44.720Z,0.00
2019-03-30T02:38:44.766Z,0.00
2019-03-30T02:39:44.673Z,0.00
2019-03-30T02:40:44.651Z,0.00
2019-03-30T02:41:44.635Z,0.00
2019-03-30T02:42:44.613Z,0.00
2019-03-30T02:43:44.590Z,0.00
2019-03-30T02:44:44.561Z,0.00
2019-03-30T02:45:44.548Z,0.00
2019-03-30T02:46:44.515Z,0.00
2019-03-30T02:47:44.493Z,0.00
2019-03-30T02:48:44.474Z,0.00
2019-03-30T02:49:44.454Z,0.00
2019-03-30T02:50:49.751Z,0.00
2019-03-30T02:51:44.408Z,0.00
2019-03-30T02:52:44.383Z,0.00
2019-03-30T02:53:44.359Z,0.00
2019-03-30T02:54:44.335Z,0.00
2019-03-30T02:55:44.322Z,0.00
2019-03-30T02:56:44.287Z,0.00
2019-03-30T02:57:44.274Z,0.00
2019-03-30T02:58:44.243Z,0.00
2019-03-30T02:59:44.225Z,0.00
2019-03-30T03:00:44.215Z,0.00
2019-03-30T03:01:44.180Z,0.00
2019-03-30T03:02:44.152Z,0.00
2019-03-30T03:03:44.134Z,0.00
2019-03-30T03:04:44.114Z,0.00
2019-03-30T03:05:44.085Z,0.00
2019-03-30T03:06:44.065Z,0.00
2019-03-30T03:07:44.039Z,0.00
2019-03-30T03:08:44.017Z,0.00
2019-03-30T03:09:43.995Z,0.00
2019-03-30T03:10:43.974Z,0.00
2019-03-30T03:11:43.949Z,0.00
2019-03-30T03:12:43.926Z,0.00
2019-03-30T03:13:43.902Z,0.00
2019-03-30T03:14:43.883Z,0.00
2019-03-30T03:15:43.861Z,0.00
2019-03-30T03:16:43.842Z,0.00
2019-03-30T03:17:43.817Z,0.00
2019-03-30T03:18:43.791Z,0.00
2019-03-30T03:19:43.769Z,0.00
2019-03-30T03:20:43.748Z,0.00
2019-03-30T03:21:43.720Z,0.00
2019-03-30T03:22:43.699Z,0.00
2019-03-30T03:23:43.681Z,0.00
2019-03-30T03:24:43.655Z,0.00
2019-03-30T03:25:43.629Z,0.00
2019-03-30T03:26:43.611Z,0.00
2019-03-30T03:27:43.592Z,0.00
2019-03-30T03:28:43.565Z,0.00
2019-03-30T03:29:44.307Z,0.00
2019-03-30T03:30:43.558Z,0.00
2019-03-30T03:31:43.494Z,0.00
2019-03-30T03:32:43.482Z,0.00
2019-03-30T03:33:43.450Z,0.00
2019-03-30T03:34:43.431Z,0.00
2019-03-30T03:35:43.401Z,0.00
2019-03-30T03:36:43.379Z,0.00
2019-03-30T03:37:46.124Z,0.00
2019-03-30T03:38:43.333Z,0.00
2019-03-30T03:39:43.309Z,0.00
2019-03-30T03:40:43.294Z,0.00
2019-03-30T03:41:43.274Z,0.00
2019-03-30T03:42:43.247Z,0.00
2019-03-30T03:43:43.227Z,0.00
2019-03-30T03:44:43.193Z,0.00
2019-03-30T03:45:43.175Z,0.00
2019-03-30T03:46:43.151Z,0.00
2019-03-30T03:47:43.131Z,0.00
2019-03-30T03:48:43.111Z,0.00
2019-03-30T03:49:43.087Z,0.00
2019-03-30T03:50:43.065Z,0.00
2019-03-30T03:51:43.038Z,0.00
2019-03-30T03:52:43.019Z,0.00
2019-03-30T03:53:42.989Z,0.00
2019-03-30T03:54:42.966Z,0.00
2019-03-30T03:55:42.949Z,0.00
2019-03-30T03:56:42.926Z,0.00
2019-03-30T03:57:42.898Z,0.00
2019-03-30T03:58:42.895Z,0.00
2019-03-30T03:59:42.855Z,0.00
2019-03-30T04:00:42.828Z,0.00
2019-03-30T04:01:42.811Z,0.00
2019-03-30T04:02:42.787Z,0.00
2019-03-30T04:03:42.764Z,0.00
2019-03-30T04:04:47.052Z,0.00
2019-03-30T04:05:42.719Z,0.00
2019-03-30T04:06:42.696Z,0.00
2019-03-30T04:07:42.673Z,0.00
2019-03-30T04:08:42.660Z,0.00
2019-03-30T04:09:42.626Z,0.00
2019-03-30T04:10:42.702Z,0.00
2019-03-30T04:11:42.584Z,0.00
2019-03-30T04:12:42.558Z,0.00
2019-03-30T04:13:42.535Z,4.00
2019-03-30T04:14:42.521Z,4.00
2019-03-30T04:15:42.492Z,0.00
2019-03-30T04:16:42.462Z,0.00
2019-03-30T04:17:42.448Z,0.00
2019-03-30T04:18:42.423Z,4.00
2019-03-30T04:19:42.394Z,4.00
2019-03-30T04:20:42.376Z,4.00
2019-03-30T04:21:44.133Z,4.00
2019-03-30T04:22:42.329Z,4.00
2019-03-30T04:23:42.301Z,4.00
2019-03-30T04:24:42.285Z,8.00
2019-03-30T04:25:42.259Z,8.00
2019-03-30T04:26:42.240Z,8.00
2019-03-30T04:27:42.215Z,12.00
2019-03-30T04:28:42.190Z,12.00
2019-03-30T04:29:42.166Z,16.00
2019-03-30T04:30:42.143Z,16.00
2019-03-30T04:31:42.119Z,20.00
2019-03-30T04:32:42.097Z,24.00
2019-03-30T04:33:42.076Z,28.00
2019-03-30T04:34:42.049Z,32.00
2019-03-30T04:35:42.029Z,36.00
2019-03-30T04:36:42.004Z,40.00
2019-03-30T04:37:41.977Z,44.00
2019-03-30T04:38:41.964Z,44.00
2019-03-30T04:39:41.941Z,52.00
2019-03-30T04:40:41.916Z,56.00
2019-03-30T04:41:41.894Z,64.00
2019-03-30T04:42:41.880Z,68.00
2019-03-30T04:43:41.845Z,72.00
2019-03-30T04:44:41.820Z,80.00
2019-03-30T04:45:41.800Z,88.00
2019-03-30T04:46:41.780Z,96.00
2019-03-30T04:47:41.753Z,104.00
2019-03-30T04:48:41.743Z,112.00
2019-03-30T04:49:41.800Z,124.00
2019-03-30T04:50:41.680Z,136.00
2019-03-30T04:51:41.664Z,148.00
2019-03-30T04:52:41.640Z,164.00
2019-03-30T04:53:41.618Z,180.00
2019-03-30T04:54:41.587Z,196.00
2019-03-30T04:55:41.570Z,212.00
2019-03-30T04:56:41.543Z,228.00
2019-03-30T04:57:41.531Z,248.00
2019-03-30T04:58:41.500Z,268.00
2019-03-30T04:59:41.474Z,288.00
2019-03-30T05:00:41.472Z,304.00
2019-03-30T05:01:41.435Z,328.00
2019-03-30T05:02:41.406Z,348.00
2019-03-30T05:03:41.385Z,368.00
2019-03-30T05:04:41.365Z,388.00
2019-03-30T05:05:43.109Z,416.00
2019-03-30T05:06:41.321Z,444.00
2019-03-30T05:07:41.296Z,468.00
2019-03-30T05:08:41.276Z,496.00
2019-03-30T05:09:41.247Z,524.00
2019-03-30T05:10:41.222Z,544.00
2019-03-30T05:11:41.200Z,572.00
2019-03-30T05:12:41.182Z,596.00
2019-03-30T05:13:41.156Z,624.00
2019-03-30T05:14:41.134Z,652.00
2019-03-30T05:15:41.109Z,680.00
2019-03-30T05:16:41.085Z,708.00
2019-03-30T05:17:47.404Z,740.00
2019-03-30T05:18:41.041Z,776.00
2019-03-30T05:19:41.021Z,812.00
2019-03-30T05:20:40.994Z,848.00
2019-03-30T05:21:40.979Z,880.00
2019-03-30T05:22:40.944Z,904.00
2019-03-30T05:23:40.923Z,932.00
2019-03-30T05:24:40.909Z,960.00
2019-03-30T05:25:40.881Z,988.00
2019-03-30T05:26:40.858Z,1020.00
2019-03-30T05:27:40.835Z,1052.00
2019-03-30T05:28:40.811Z,1076.00
2019-03-30T05:29:40.788Z,1108.00
2019-03-30T05:30:40.769Z,1160.00
2019-03-30T05:31:40.745Z,1192.00
2019-03-30T05:32:41.783Z,1204.00
2019-03-30T05:33:40.695Z,1220.00
2019-03-30T05:34:40.670Z,1236.00
2019-03-30T05:35:40.653Z,1260.00
2019-03-30T05:36:40.625Z,1268.00
2019-03-30T05:37:40.606Z,1276.00
2019-03-30T05:38:40.579Z,1288.00
2019-03-30T05:39:40.562Z,1320.00
2019-03-30T05:40:40.539Z,1340.00
2019-03-30T05:41:40.515Z,1336.00
2019-03-30T05:42:40.485Z,1336.00
2019-03-30T05:43:40.465Z,1344.00
2019-03-30T05:44:40.449Z,1356.00
2019-03-30T05:45:40.417Z,1356.00
2019-03-30T05:46:40.394Z,1336.00
2019-03-30T05:47:40.377Z,1328.00
2019-03-30T05:48:40.354Z,1336.00
2019-03-30T05:49:40.331Z,1360.00
2019-03-30T05:50:40.308Z,1372.00
2019-03-30T05:51:40.286Z,1368.00
2019-03-30T05:52:40.259Z,1392.00
2019-03-30T05:53:40.241Z,1416.00
2019-03-30T05:54:40.220Z,1424.00
2019-03-30T05:55:40.199Z,1416.00
2019-03-30T05:56:40.173Z,1416.00
2019-03-30T05:57:40.150Z,1420.00
2019-03-30T05:58:40.122Z,1440.00
2019-03-30T05:59:40.104Z,1476.00
2019-03-30T06:00:40.074Z,1552.00
2019-03-30T06:01:40.055Z,1692.00
2019-03-30T06:02:40.035Z,1792.00
2019-03-30T06:03:40.007Z,1828.00
2019-03-30T06:04:39.988Z,1852.00
2019-03-30T06:05:39.973Z,1892.00
2019-03-30T06:06:39.943Z,1896.00
2019-03-30T06:07:39.981Z,1952.00
2019-03-30T06:08:39.893Z,1980.00
2019-03-30T06:09:39.875Z,2048.00
2019-03-30T06:10:39.853Z,2104.00
2019-03-30T06:11:39.827Z,2144.00
2019-03-30T06:12:39.811Z,2192.00
2019-03-30T06:13:39.782Z,2244.00
2019-03-30T06:14:39.761Z,2292.00
2019-03-30T06:15:39.735Z,2332.00
2019-03-30T06:16:39.714Z,2324.00
2019-03-30T06:17:39.688Z,2272.00
2019-03-30T06:18:39.667Z,2296.00
2019-03-30T06:19:39.643Z,2360.00
2019-03-30T06:20:39.626Z,2408.00
2019-03-30T06:21:39.599Z,2436.00
2019-03-30T06:22:40.748Z,2508.00
2019-03-30T06:23:39.559Z,2584.00
2019-03-30T06:24:39.537Z,2672.00
2019-03-30T06:25:39.506Z,2752.00
2019-03-30T06:26:39.488Z,2812.00
2019-03-30T06:27:39.464Z,2884.00
2019-03-30T06:28:39.442Z,2932.00
2019-03-30T06:29:39.420Z,2972.00
2019-03-30T06:30:39.394Z,3036.00
2019-03-30T06:31:39.378Z,3120.00
2019-03-30T06:32:39.351Z,3192.00
2019-03-30T06:33:39.329Z,3216.00
2019-03-30T06:34:39.303Z,3272.00
2019-03-30T06:35:39.286Z,3336.00
2019-03-30T06:36:39.261Z,3392.00
2019-03-30T06:37:39.238Z,3496.00
2019-03-30T06:38:39.214Z,3588.00
2019-03-30T06:39:39.192Z,3384.00
2019-03-30T06:40:39.168Z,3844.00
2019-03-30T06:41:39.163Z,3912.00
2019-03-30T06:42:39.128Z,3804.00
2019-03-30T06:43:39.102Z,3860.00
2019-03-30T06:44:39.080Z,4092.00
2019-03-30T06:45:39.057Z,4188.00
2019-03-30T06:46:39.640Z,3824.00
2019-03-30T06:47:39.015Z,3700.00
2019-03-30T06:48:39.004Z,3348.00
2019-03-30T06:49:38.972Z,3252.00
2019-03-30T06:50:38.948Z,3208.00
2019-03-30T06:51:38.930Z,3432.00
2019-03-30T06:52:42.730Z,3720.00
2019-03-30T06:53:38.890Z,4068.00
2019-03-30T06:54:38.862Z,5488.00
2019-03-30T06:55:38.839Z,8432.00
2019-03-30T06:56:38.817Z,8848.00
2019-03-30T06:57:38.798Z,10832.00
2019-03-30T06:58:38.774Z,14444.00
2019-03-30T06:59:38.754Z,13524.00
2019-03-30T07:00:38.735Z,11728.00
2019-03-30T07:01:38.712Z,8688.00
2019-03-30T07:02:38.690Z,6544.00
2019-03-30T07:03:38.672Z,6512.00
2019-03-30T07:04:38.648Z,6652.00
2019-03-30T07:05:38.622Z,7060.00
2019-03-30T07:06:38.612Z,9584.00
2019-03-30T07:07:38.585Z,13696.00
2019-03-30T07:08:38.567Z,17984.00
2019-03-30T07:09:38.539Z,21952.00
2019-03-30T07:10:38.602Z,24960.00
2019-03-30T07:11:38.506Z,22752.00
2019-03-30T07:12:38.479Z,20128.00
2019-03-30T07:13:38.461Z,11060.00
2019-03-30T07:14:38.444Z,7528.00
2019-03-30T07:15:38.420Z,7176.00
2019-03-30T07:16:38.401Z,7004.00
2019-03-30T07:17:38.378Z,7128.00
2019-03-30T07:18:52.682Z,7256.00
2019-03-30T07:19:52.658Z,7548.00
2019-03-30T07:20:52.634Z,14416.00
2019-03-30T07:21:52.615Z,22496.00
2019-03-30T07:22:52.596Z,24352.00
2019-03-30T07:23:52.575Z,26656.00
2019-03-30T07:24:52.558Z,27072.00
2019-03-30T07:25:52.544Z,26112.00
2019-03-30T07:26:52.522Z,6092.00
2019-03-30T07:27:52.501Z,5996.00
2019-03-30T07:28:52.684Z,6028.00
2019-03-30T07:29:52.466Z,6120.00
2019-03-30T07:30:52.452Z,6748.00
2019-03-30T07:31:52.432Z,10308.00
2019-03-30T07:32:52.404Z,14780.00
2019-03-30T07:33:52.392Z,15096.00
2019-03-30T07:34:52.370Z,14904.00
2019-03-30T07:35:52.350Z,16352.00
2019-03-30T07:36:52.337Z,17376.00
2019-03-30T07:37:52.316Z,18784.00
2019-03-30T07:38:52.305Z,19104.00
2019-03-30T07:39:52.278Z,18304.00
2019-03-30T07:40:52.267Z,18176.00
2019-03-30T07:41:52.306Z,17984.00
2019-03-30T07:42:52.229Z,17856.00
2019-03-30T07:43:52.211Z,18848.00
2019-03-30T07:44:52.200Z,18432.00
2019-03-30T07:45:52.183Z,18592.00
2019-03-30T07:46:52.171Z,18272.00
2019-03-30T07:47:52.143Z,18816.00
2019-03-30T07:48:52.129Z,19936.00
2019-03-30T07:49:52.113Z,20352.00
2019-03-30T07:50:52.100Z,19552.00
2019-03-30T07:51:52.079Z,18912.00
2019-03-30T07:52:52.061Z,13024.00
2019-03-30T07:53:52.046Z,11104.00
2019-03-30T07:54:52.026Z,10556.00
2019-03-30T07:55:52.009Z,8808.00
2019-03-30T07:57:04.120Z,7136.00
2019-03-30T07:57:52.009Z,6892.00
2019-03-30T07:58:51.964Z,6804.00
2019-03-30T07:59:51.947Z,6728.00
2019-03-30T08:00:51.926Z,6732.00
2019-03-30T08:01:51.912Z,6780.00
2019-03-30T08:02:51.904Z,6828.00
2019-03-30T08:03:51.885Z,6952.00
2019-03-30T08:04:51.865Z,12264.00
2019-03-30T08:05:54.326Z,11496.00
2019-03-30T08:06:51.842Z,7080.00
2019-03-30T08:07:51.822Z,7008.00
2019-03-30T08:08:51.806Z,7036.00
2019-03-30T08:09:51.791Z,6916.00
2019-03-30T08:10:51.775Z,7032.00
2019-03-30T08:11:51.769Z,7140.00
2019-03-30T08:12:51.748Z,7148.00
2019-03-30T08:13:51.727Z,7360.00
2019-03-30T08:14:51.711Z,7428.00
2019-03-30T08:15:51.700Z,7544.00
2019-03-30T08:16:51.681Z,7384.00
2019-03-30T08:17:51.668Z,7692.00
2019-03-30T08:18:51.663Z,7816.00
2019-03-30T08:19:51.645Z,7856.00
2019-03-30T08:20:51.627Z,7912.00
2019-03-30T08:21:51.609Z,7992.00
2019-03-30T08:22:51.592Z,8020.00
2019-03-30T08:23:51.585Z,8112.00
2019-03-30T08:24:51.563Z,7976.00
2019-03-30T08:25:51.564Z,8184.00
2019-03-30T08:26:51.546Z,8236.00
2019-03-30T08:27:51.527Z,8264.00
2019-03-30T08:28:51.511Z,8272.00
2019-03-30T08:29:51.491Z,8308.00
2019-03-30T08:30:51.483Z,8280.00
2019-03-30T08:31:51.465Z,8408.00
2019-03-30T08:32:51.467Z,8636.00
2019-03-30T08:33:51.435Z,8552.00
2019-03-30T08:34:51.423Z,8764.00
2019-03-30T08:35:51.409Z,8760.00
2019-03-30T08:36:51.403Z,8796.00
2019-03-30T08:37:51.385Z,8864.00
2019-03-30T08:38:51.369Z,9020.00
2019-03-30T08:39:51.350Z,9092.00
2019-03-30T08:40:51.335Z,9088.00
2019-03-30T08:41:51.326Z,8904.00
2019-03-30T08:42:51.311Z,9004.00
2019-03-30T08:43:51.301Z,8992.00
2019-03-30T08:44:51.283Z,8916.00
2019-03-30T08:45:51.279Z,8668.00
2019-03-30T08:46:51.260Z,8520.00
2019-03-30T08:47:51.242Z,8652.00
2019-03-30T08:48:51.235Z,8604.00
2019-03-30T08:49:51.221Z,8664.00
2019-03-30T08:50:51.209Z,8472.00
2019-03-30T08:51:51.191Z,8440.00
2019-03-30T08:52:51.184Z,8624.00
2019-03-30T08:53:54.805Z,8836.00
2019-03-30T08:54:51.155Z,9144.00
2019-03-30T08:55:51.141Z,9144.00
2019-03-30T08:56:51.138Z,9412.00
2019-03-30T08:57:51.114Z,9344.00
2019-03-30T08:58:51.101Z,9716.00
2019-03-30T08:59:51.087Z,10020.00
2019-03-30T09:00:51.074Z,10188.00
2019-03-30T09:01:51.059Z,10104.00
2019-03-30T09:02:51.050Z,9916.00
2019-03-30T09:03:51.034Z,9996.00
2019-03-30T09:04:51.027Z,9720.00
2019-03-30T09:05:51.010Z,9592.00
2019-03-30T09:06:50.999Z,9920.00
2019-03-30T09:07:50.986Z,9904.00
2019-03-30T09:08:50.969Z,9868.00
2019-03-30T09:09:50.990Z,10052.00
2019-03-30T09:10:50.947Z,10124.00
2019-03-30T09:11:50.937Z,10452.00
2019-03-30T09:12:50.930Z,10644.00
2019-03-30T09:13:50.918Z,10824.00
2019-03-30T09:14:50.894Z,10648.00
2019-03-30T09:15:50.886Z,10504.00
2019-03-30T09:16:50.871Z,10600.00
2019-03-30T09:17:50.861Z,11508.00
2019-03-30T09:18:50.846Z,11512.00
2019-03-30T09:19:50.832Z,11832.00
2019-03-30T09:20:50.821Z,12196.00
2019-03-30T09:21:50.815Z,12420.00
2019-03-30T09:22:50.800Z,12788.00
2019-03-30T09:23:50.787Z,13092.00
2019-03-30T09:24:50.774Z,13416.00
2019-03-30T09:25:50.769Z,13080.00
2019-03-30T09:26:50.756Z,13424.00
2019-03-30T09:27:50.740Z,13984.00
2019-03-30T09:28:51.149Z,14196.00
2019-03-30T09:29:50.713Z,13560.00
2019-03-30T09:30:50.705Z,13260.00
2019-03-30T09:31:50.688Z,13780.00
2019-03-30T09:32:50.681Z,13940.00
2019-03-30T09:33:50.672Z,13716.00
2019-03-30T09:34:50.653Z,13540.00
2019-03-30T09:35:50.649Z,13088.00
2019-03-30T09:36:50.714Z,13552.00
2019-03-30T09:37:50.628Z,13192.00
2019-03-30T09:38:50.618Z,12756.00
2019-03-30T09:39:50.598Z,13560.00
2019-03-30T09:40:50.591Z,13660.00
2019-03-30T09:41:50.587Z,14400.00
2019-03-30T09:42:50.564Z,14176.00
2019-03-30T09:43:50.562Z,13820.00
2019-03-30T09:44:50.555Z,14684.00
2019-03-30T09:45:50.544Z,14564.00
2019-03-30T09:46:51.333Z,14296.00
2019-03-30T09:47:50.512Z,15304.00
2019-03-30T09:48:50.507Z,15288.00
2019-03-30T09:49:50.501Z,17056.00
2019-03-30T09:50:50.486Z,16224.00
2019-03-30T09:51:50.470Z,17728.00
2019-03-30T09:52:50.460Z,18432.00
2019-03-30T09:53:50.452Z,26272.00
2019-03-30T09:54:50.442Z,45088.00
2019-03-30T09:55:50.454Z,51712.00
2019-03-30T09:56:50.423Z,41536.00
2019-03-30T09:57:50.736Z,44384.00
2019-03-30T09:58:50.406Z,48096.00
2019-03-30T09:59:50.395Z,57952.00
2019-03-30T10:00:50.384Z,49856.00
2019-03-30T10:01:50.383Z,53216.00
2019-03-30T10:02:50.369Z,38592.00
2019-03-30T10:03:50.358Z,40320.00
2019-03-30T10:04:50.346Z,44736.00
2019-03-30T10:05:50.335Z,57824.00
2019-03-30T10:06:50.327Z,59296.00
2019-03-30T10:07:50.319Z,61984.00
2019-03-30T10:08:50.319Z,65760.00
2019-03-30T10:09:50.303Z,68160.00
2019-03-30T10:10:50.291Z,63168.00
2019-03-30T10:11:50.280Z,64320.00
2019-03-30T10:12:50.278Z,72992.00
2019-03-30T10:13:50.264Z,80960.00
2019-03-30T10:14:50.259Z,78528.00
2019-03-30T10:15:50.249Z,58944.00
2019-03-30T10:16:50.240Z,49440.00
2019-03-30T10:17:50.233Z,46848.00
2019-03-30T10:18:50.234Z,53312.00
2019-03-30T10:20:03.626Z,67008.00
2019-03-30T10:20:50.209Z,59424.00
2019-03-30T10:21:50.207Z,70240.00
2019-03-30T10:22:50.208Z,76064.00
2019-03-30T10:23:50.191Z,69632.00
2019-03-30T10:24:50.180Z,58752.00
2019-03-30T10:25:50.172Z,69440.00
2019-03-30T10:26:50.169Z,74688.00
2019-03-30T10:27:50.162Z,76160.00
2019-03-30T10:28:50.154Z,74816.00
2019-03-30T10:29:50.157Z,75392.00
2019-03-30T10:30:50.147Z,78912.00
2019-03-30T10:31:50.147Z,81120.00
2019-03-30T10:32:50.133Z,80384.00
2019-03-30T10:33:50.123Z,85120.00
2019-03-30T10:34:50.121Z,85792.00
2019-03-30T10:35:50.116Z,83840.00
2019-03-30T10:36:50.183Z,82848.00
2019-03-30T10:37:50.102Z,81536.00
2019-03-30T10:38:50.095Z,80608.00
2019-03-30T10:39:50.091Z,75456.00
2019-03-30T10:40:50.084Z,75104.00
2019-03-30T10:41:50.081Z,73024.00
2019-03-30T10:42:50.081Z,73568.00
2019-03-30T10:43:50.067Z,82208.00
2019-03-30T10:44:50.065Z,86240.00
2019-03-30T10:45:50.071Z,88096.00
2019-03-30T10:46:50.055Z,81760.00
2019-03-30T10:47:50.051Z,84736.00
2019-03-30T10:48:50.048Z,71008.00
2019-03-30T10:49:50.046Z,74656.00
2019-03-30T10:50:50.036Z,81376.00
2019-03-30T10:51:50.031Z,78496.00
2019-03-30T10:52:50.030Z,82144.00
2019-03-30T10:53:50.027Z,74816.00
2019-03-30T10:54:52.857Z,80192.00
2019-03-30T10:55:50.022Z,69856.00
2019-03-30T10:56:50.021Z,68192.00
2019-03-30T10:57:50.017Z,55168.00
2019-03-30T10:58:50.009Z,69024.00
2019-03-30T10:59:50.005Z,77376.00
2019-03-30T11:00:50.001Z,75104.00
2019-03-30T11:01:50.012Z,74528.00
2019-03-30T11:02:49.990Z,78816.00
2019-03-30T11:03:49.989Z,82432.00
2019-03-30T11:04:49.985Z,88512.00
2019-03-30T11:05:49.985Z,89184.00
2019-03-30T11:06:49.983Z,86656.00
2019-03-30T11:07:49.975Z,84640.00
2019-03-30T11:08:49.979Z,86944.00
2019-03-30T11:09:49.974Z,87840.00
2019-03-30T11:10:49.971Z,91904.00
2019-03-30T11:11:49.967Z,93984.00
2019-03-30T11:12:49.962Z,86912.00
2019-03-30T11:13:49.961Z,85920.00
2019-03-30T11:14:49.957Z,84320.00
2019-03-30T11:15:49.953Z,81600.00
2019-03-30T11:16:49.948Z,73280.00
2019-03-30T11:17:49.946Z,77312.00
2019-03-30T11:18:49.945Z,79360.00
2019-03-30T11:19:49.945Z,83328.00
2019-03-30T11:20:49.940Z,85504.00
2019-03-30T11:21:49.944Z,82944.00
2019-03-30T11:22:49.936Z,85184.00
2019-03-30T11:23:49.930Z,82752.00
2019-03-30T11:24:49.927Z,81344.00
2019-03-30T11:25:49.924Z,83904.00
2019-03-30T11:26:49.936Z,86976.00
2019-03-30T11:27:49.926Z,88384.00
2019-03-30T11:28:49.922Z,89728.00
2019-03-30T11:29:49.913Z,89472.00
2019-03-30T11:30:49.913Z,82464.00
2019-03-30T11:31:49.912Z,81376.00
2019-03-30T11:32:49.909Z,80544.00
2019-03-30T11:33:49.908Z,80224.00
2019-03-30T11:34:49.899Z,73152.00
2019-03-30T11:35:49.899Z,69504.00
2019-03-30T11:36:49.900Z,82784.00
2019-03-30T11:37:49.907Z,81856.00
2019-03-30T11:38:52.517Z,81824.00
2019-03-30T11:39:49.894Z,83808.00
2019-03-30T11:40:49.890Z,83328.00
2019-03-30T11:41:49.888Z,82560.00
2019-03-30T11:42:49.889Z,83456.00
2019-03-30T11:43:49.883Z,75904.00
2019-03-30T11:44:49.884Z,74752.00
2019-03-30T11:45:49.881Z,75360.00
2019-03-30T11:46:49.880Z,78432.00
2019-03-30T11:47:49.880Z,78048.00
2019-03-30T11:48:49.872Z,79584.00
2019-03-30T11:49:49.874Z,86528.00
2019-03-30T11:50:49.870Z,86304.00
2019-03-30T11:51:49.868Z,82656.00
2019-03-30T11:52:49.864Z,77408.00
2019-03-30T11:53:49.869Z,76224.00
2019-03-30T11:54:49.861Z,76384.00
2019-03-30T11:55:49.865Z,78496.00
2019-03-30T11:56:49.962Z,80032.00
2019-03-30T11:57:49.855Z,82080.00
2019-03-30T11:58:49.854Z,77504.00
2019-03-30T11:59:49.859Z,73760.00
2019-03-30T12:00:49.857Z,73888.00
2019-03-30T12:01:49.847Z,77184.00
2019-03-30T12:02:49.851Z,80640.00
2019-03-30T12:03:49.843Z,79104.00
2019-03-30T12:04:49.840Z,77344.00
2019-03-30T12:05:49.843Z,77920.00
2019-03-30T12:06:51.874Z,81824.00
2019-03-30T12:07:49.838Z,82944.00
2019-03-30T12:08:49.838Z,80000.00
2019-03-30T12:09:49.837Z,75776.00
2019-03-30T12:10:49.838Z,78304.00
2019-03-30T12:11:49.830Z,78560.00
2019-03-30T12:12:49.828Z,82208.00
2019-03-30T12:13:49.827Z,83104.00
2019-03-30T12:14:49.832Z,76096.00
2019-03-30T12:15:49.827Z,72448.00
2019-03-30T12:16:49.826Z,72640.00
2019-03-30T12:17:49.828Z,78016.00
2019-03-30T12:18:49.829Z,80064.00
2019-03-30T12:19:49.819Z,70144.00
2019-03-30T12:20:49.817Z,69088.00
2019-03-30T12:21:49.816Z,64000.00
2019-03-30T12:22:49.816Z,74848.00
2019-03-30T12:23:49.821Z,78272.00
2019-03-30T12:24:49.826Z,79648.00
2019-03-30T12:25:49.812Z,76224.00